Time;durP1;ratioP1;P1;durP2;ratioP2;P2;SDS_P1;SDS_P2;PMS_P1;PMS_P2;Temp;Humidity;BMP_temperature;BMP_pressure;BME280_temperature;BME280_humidity;BME280_pressure;Samples;Min_cycle;Max_cycle;Signal;HPM_P1;HPM_P2
2021/10/08 00:01:45;;;;;;;12.75;3.50;;;18.00;69.50;;;;;;5047209;28;20395;-73
2021/10/08 00:04:11;;;;;;;8.40;2.67;;;18.00;69.60;;;;;;5048303;28;20044;-73
2021/10/08 00:06:38;;;;;;;8.85;2.45;;;18.00;68.60;;;;;;5046096;28;20021;-73
2021/10/08 00:09:05;;;;;;;6.43;2.20;;;18.00;67.90;;;;;;5047198;28;20032;-73
2021/10/08 00:11:32;;;;;;;9.57;3.22;;;18.00;67.50;;;;;;5052147;28;20461;-73
2021/10/08 00:13:58;;;;;;;13.68;5.43;;;18.00;67.60;;;;;;5047274;28;20033;-73
2021/10/08 00:16:24;;;;;;;11.93;4.97;;;18.10;67.70;;;;;;5039997;28;20021;-73
2021/10/08 00:18:51;;;;;;;10.75;3.53;;;18.10;68.00;;;;;;5044888;28;20021;-73
2021/10/08 00:21:18;;;;;;;13.55;3.08;;;18.10;68.20;;;;;;5040895;28;20029;-73
2021/10/08 00:23:45;;;;;;;14.45;3.72;;;18.10;68.10;;;;;;5049201;28;20033;-73
2021/10/08 00:26:11;;;;;;;11.82;3.00;;;18.10;67.90;;;;;;5044385;28;20025;-73
2021/10/08 00:28:38;;;;;;;13.27;3.13;;;18.10;67.70;;;;;;5043120;28;20029;-74
2021/10/08 00:31:04;;;;;;;8.50;2.05;;;18.10;67.30;;;;;;5039729;28;20100;-73
2021/10/08 00:33:31;;;;;;;11.43;2.80;;;18.10;67.50;;;;;;5049388;28;20067;-73
2021/10/08 00:35:57;;;;;;;12.57;2.60;;;18.10;67.50;;;;;;5043904;28;20021;-73
2021/10/08 00:38:24;;;;;;;12.35;2.17;;;18.10;67.70;;;;;;5045288;28;20032;-73
2021/10/08 00:40:51;;;;;;;6.00;2.63;;;18.10;67.60;;;;;;5044271;28;20557;-73
2021/10/08 00:43:19;;;;;;;13.60;3.13;;;18.10;67.40;;;;;;5038484;28;20021;-74
2021/10/08 00:45:46;;;;;;;7.10;2.10;;;18.10;67.20;;;;;;5037953;28;20040;-73
2021/10/08 00:48:14;;;;;;;9.60;2.60;;;18.10;67.10;;;;;;5041109;28;20036;-74
2021/10/08 00:50:47;;;;;;;14.80;3.42;;;18.10;67.20;;;;;;5046648;28;20519;-73
2021/10/08 00:53:14;;;;;;;8.80;2.72;;;18.10;67.20;;;;;;5040830;28;20076;-74
2021/10/08 00:55:43;;;;;;;11.43;2.67;;;18.10;67.10;;;;;;5043867;28;20431;-73
2021/10/08 00:58:11;;;;;;;10.32;2.40;;;18.10;67.10;;;;;;5038852;28;20497;-73
2021/10/08 01:00:46;;;;;;;5.95;2.03;;;18.10;67.10;;;;;;5044020;28;20021;-73
2021/10/08 01:03:14;;;;;;;11.30;3.60;;;18.10;67.10;;;;;;5047755;28;20625;-74
2021/10/08 01:05:41;;;;;;;11.57;2.67;;;18.10;67.00;;;;;;5045532;28;20511;-73
2021/10/08 01:08:09;;;;;;;8.85;2.83;;;18.00;67.00;;;;;;5046513;28;20021;-73
2021/10/08 01:10:38;;;;;;;12.60;3.05;;;18.00;67.10;;;;;;5050068;28;20472;-73
2021/10/08 01:13:07;;;;;;;6.57;2.42;;;18.00;67.10;;;;;;5039659;28;20032;-73
2021/10/08 01:15:34;;;;;;;8.65;2.58;;;18.00;67.10;;;;;;5049628;28;20021;-73
2021/10/08 01:18:01;;;;;;;10.60;2.97;;;18.00;67.10;;;;;;5039434;28;20022;-73
2021/10/08 01:20:27;;;;;;;10.73;3.65;;;18.00;67.20;;;;;;5051513;28;20035;-73
2021/10/08 01:22:58;;;;;;;12.55;2.55;;;18.00;67.20;;;;;;5054311;28;20452;-73
2021/10/08 01:25:30;;;;;;;6.85;2.63;;;18.10;67.20;;;;;;5045831;28;20037;-73
2021/10/08 01:27:57;;;;;;;8.10;2.72;;;18.00;67.30;;;;;;5047400;28;20501;-73
2021/10/08 01:30:24;;;;;;;12.27;3.30;;;18.10;67.40;;;;;;5037858;28;20021;-73
2021/10/08 01:32:51;;;;;;;10.93;2.67;;;18.10;67.10;;;;;;5040973;28;20020;-73
2021/10/08 01:35:18;;;;;;;12.93;3.35;;;18.10;67.20;;;;;;5048368;28;20047;-72
2021/10/08 01:37:45;;;;;;;10.45;2.67;;;18.00;67.10;;;;;;5044041;28;20351;-73
2021/10/08 01:40:13;;;;;;;8.05;2.20;;;18.00;67.30;;;;;;5047579;28;20457;-73
2021/10/08 01:42:40;;;;;;;8.70;2.58;;;18.00;67.20;;;;;;5049832;28;20017;-74
2021/10/08 01:45:09;;;;;;;7.15;2.33;;;18.00;67.10;;;;;;5046167;28;20083;-74
2021/10/08 01:47:36;;;;;;;10.07;2.50;;;18.00;67.30;;;;;;5036174;28;20083;-73
2021/10/08 01:50:03;;;;;;;7.63;3.65;;;18.00;67.50;;;;;;5045976;28;20939;-73
2021/10/08 01:52:30;;;;;;;8.48;2.72;;;18.00;67.70;;;;;;5041820;28;20025;-73
2021/10/08 01:54:56;;;;;;;13.05;3.67;;;18.00;67.80;;;;;;5042803;28;20016;-74
2021/10/08 01:57:25;;;;;;;8.82;2.63;;;18.00;67.90;;;;;;5042944;28;20372;-74
2021/10/08 01:59:53;;;;;;;7.95;2.47;;;18.00;67.90;;;;;;5046789;28;20091;-73
2021/10/08 02:02:20;;;;;;;7.25;2.63;;;18.00;68.00;;;;;;5045533;28;20049;-73
2021/10/08 02:04:47;;;;;;;9.95;3.13;;;18.00;68.30;;;;;;5036044;28;20440;-73
2021/10/08 02:07:14;;;;;;;6.63;2.10;;;17.90;68.60;;;;;;5046149;28;20387;-73
2021/10/08 02:09:41;;;;;;;9.80;2.90;;;17.90;68.70;;;;;;5046033;28;20029;-73
2021/10/08 02:12:08;;;;;;;12.05;2.55;;;17.90;68.60;;;;;;5033216;28;20026;-73
2021/10/08 02:14:35;;;;;;;9.73;2.55;;;17.90;68.60;;;;;;5039083;28;20097;-73
2021/10/08 02:17:01;;;;;;;6.28;2.15;;;17.90;68.90;;;;;;5046703;28;20075;-73
2021/10/08 02:19:28;;;;;;;9.38;2.63;;;17.90;69.10;;;;;;5040016;28;20015;-73
2021/10/08 02:21:54;;;;;;;9.25;1.95;;;17.90;69.10;;;;;;5046918;28;20027;-73
2021/10/08 02:24:21;;;;;;;9.30;3.25;;;17.90;69.10;;;;;;5037459;28;20041;-73
2021/10/08 02:26:47;;;;;;;10.30;2.30;;;17.90;69.10;;;;;;5036192;28;20028;-73
2021/10/08 02:29:14;;;;;;;11.00;2.60;;;17.90;69.00;;;;;;5047881;28;20056;-73
2021/10/08 02:31:40;;;;;;;8.38;2.72;;;17.90;69.30;;;;;;5040167;28;20334;-73
2021/10/08 02:34:07;;;;;;;9.35;3.33;;;17.90;69.10;;;;;;5039297;28;20018;-73
2021/10/08 02:36:33;;;;;;;11.43;3.80;;;17.80;68.80;;;;;;5040683;28;20043;-73
2021/10/08 02:39:00;;;;;;;10.27;2.90;;;17.80;68.70;;;;;;5046399;28;20427;-73
2021/10/08 02:41:27;;;;;;;6.40;2.22;;;17.90;68.90;;;;;;5040045;28;20473;-73
2021/10/08 02:43:53;;;;;;;7.18;2.25;;;17.80;68.70;;;;;;5046204;28;20068;-73
2021/10/08 02:46:20;;;;;;;7.90;2.28;;;17.80;68.70;;;;;;5045302;28;20082;-73
2021/10/08 02:48:46;;;;;;;9.95;3.10;;;17.80;68.70;;;;;;5040943;28;20032;-73
2021/10/08 02:51:13;;;;;;;16.30;2.50;;;17.80;68.80;;;;;;5044418;28;20035;-74
2021/10/08 02:53:39;;;;;;;12.13;2.75;;;17.90;69.20;;;;;;5048212;28;20112;-73
2021/10/08 02:56:06;;;;;;;11.43;2.35;;;17.80;68.80;;;;;;5043414;28;20424;-74
2021/10/08 02:58:32;;;;;;;6.90;2.30;;;17.70;68.80;;;;;;5042361;28;20020;-73
2021/10/08 03:00:59;;;;;;;5.63;2.28;;;17.70;68.90;;;;;;5041183;28;20495;-74
2021/10/08 03:03:26;;;;;;;13.30;2.92;;;17.70;68.90;;;;;;5037194;28;20136;-73
2021/10/08 03:05:52;;;;;;;9.57;2.47;;;17.70;68.90;;;;;;5042438;28;20111;-73
2021/10/08 03:08:19;;;;;;;8.90;2.47;;;17.70;68.80;;;;;;5043176;28;20665;-73
2021/10/08 03:10:45;;;;;;;12.40;3.60;;;17.70;68.70;;;;;;5044717;28;20026;-73
2021/10/08 03:13:11;;;;;;;7.53;2.33;;;17.70;68.70;;;;;;5048131;28;20491;-73
2021/10/08 03:15:38;;;;;;;6.50;1.95;;;17.60;68.70;;;;;;5044592;28;20104;-73
2021/10/08 03:18:04;;;;;;;7.85;2.10;;;17.60;68.80;;;;;;5045094;28;20033;-73
2021/10/08 03:20:32;;;;;;;10.75;2.72;;;17.60;68.60;;;;;;5037714;28;20025;-73
2021/10/08 03:22:58;;;;;;;8.38;1.85;;;17.60;68.40;;;;;;5049228;28;20476;-73
2021/10/08 03:25:25;;;;;;;9.15;3.25;;;17.60;68.50;;;;;;5034067;28;20036;-73
2021/10/08 03:27:51;;;;;;;9.98;3.40;;;17.60;68.40;;;;;;5044823;28;20100;-73
2021/10/08 03:30:18;;;;;;;8.15;2.28;;;17.60;68.20;;;;;;5043059;28;20021;-73
2021/10/08 03:32:45;;;;;;;6.90;2.67;;;17.60;68.20;;;;;;5042399;28;20049;-73
2021/10/08 03:35:12;;;;;;;8.75;2.60;;;17.60;68.20;;;;;;5040563;28;20384;-73
2021/10/08 03:40:08;;;;;;;8.13;2.38;;;17.60;68.40;;;;;;5043698;28;20107;-73
2021/10/08 03:42:34;;;;;;;11.93;4.10;;;17.60;68.20;;;;;;5033790;28;20171;-73
2021/10/08 03:45:09;;;;;;;10.43;2.63;;;17.60;68.20;;;;;;5044506;28;20025;-73
2021/10/08 03:48:04;;;;;;;14.50;3.28;;;17.60;68.20;;;;;;5037302;28;20499;-73
2021/10/08 03:50:31;;;;;;;8.07;2.20;;;17.60;68.30;;;;;;5038414;28;20028;-73
2021/10/08 03:52:58;;;;;;;11.00;2.70;;;17.50;68.00;;;;;;5044848;28;20032;-73
2021/10/08 03:55:24;;;;;;;10.98;2.60;;;17.50;68.10;;;;;;5046368;28;20021;-73
2021/10/08 03:57:51;;;;;;;6.93;2.15;;;17.50;68.00;;;;;;5036884;28;20025;-73
2021/10/08 04:00:17;;;;;;;10.90;3.63;;;17.50;68.10;;;;;;5046590;28;20028;-73
2021/10/08 04:02:44;;;;;;;9.27;2.53;;;17.60;68.00;;;;;;5046570;28;20033;-75
2021/10/08 04:05:10;;;;;;;9.35;2.10;;;17.50;67.90;;;;;;5044558;28;20037;-75
2021/10/08 04:07:36;;;;;;;9.30;2.40;;;17.60;67.90;;;;;;5041587;28;20016;-72
2021/10/08 04:10:04;;;;;;;11.63;3.05;;;17.50;67.90;;;;;;5040376;28;20028;-75
2021/10/08 04:12:30;;;;;;;7.28;2.58;;;17.50;68.00;;;;;;5038868;28;20024;-74
2021/10/08 04:14:57;;;;;;;24.25;18.60;;;17.50;68.10;;;;;;5046628;28;20017;-74
2021/10/08 04:17:23;;;;;;;27.17;12.25;;;17.50;68.10;;;;;;5049372;28;20103;-72
2021/10/08 04:19:50;;;;;;;5.80;2.75;;;17.50;68.10;;;;;;5044546;28;20032;-72
2021/10/08 04:22:16;;;;;;;7.22;2.30;;;17.60;68.00;;;;;;5040605;28;20016;-74
2021/10/08 04:24:43;;;;;;;10.93;2.70;;;17.50;67.90;;;;;;5038968;28;20518;-77
2021/10/08 04:27:09;;;;;;;10.90;2.60;;;17.50;67.90;;;;;;5047202;28;20155;-75
2021/10/08 04:29:36;;;;;;;13.35;3.38;;;17.60;67.90;;;;;;5020386;28;20037;-74
2021/10/08 04:32:02;;;;;;;8.48;2.58;;;17.50;68.20;;;;;;5042099;28;20112;-76
2021/10/08 04:34:29;;;;;;;11.30;2.08;;;17.50;68.10;;;;;;5034692;28;20025;-73
2021/10/08 04:36:55;;;;;;;8.75;1.90;;;17.50;68.10;;;;;;5039578;28;20028;-76
2021/10/08 04:39:22;;;;;;;11.65;2.97;;;17.50;68.20;;;;;;5046776;28;20500;-75
2021/10/08 04:41:48;;;;;;;7.93;2.60;;;17.50;68.10;;;;;;5040966;28;20055;-75
2021/10/08 04:44:15;;;;;;;10.93;2.95;;;17.50;68.30;;;;;;5035637;28;20833;-74
2021/10/08 04:46:41;;;;;;;6.28;2.75;;;17.50;68.40;;;;;;5035540;28;20025;-74
2021/10/08 04:49:08;;;;;;;14.32;2.67;;;17.50;68.40;;;;;;5035313;28;20426;-79
2021/10/08 04:51:35;;;;;;;7.57;2.22;;;17.50;68.60;;;;;;5034048;28;20017;-75
2021/10/08 04:54:02;;;;;;;9.13;3.60;;;17.50;68.60;;;;;;5034947;28;20044;-74
2021/10/08 04:56:32;;;;;;;15.35;3.13;;;17.60;69.10;;;;;;5035007;28;20427;-74
2021/10/08 04:59:00;;;;;;;14.80;4.32;;;17.50;68.50;;;;;;5033505;28;20040;-73
2021/10/08 05:02:06;;;;;;;8.52;2.70;;;17.50;68.40;;;;;;5033385;28;20025;-73
2021/10/08 05:05:12;;;;;;;8.02;2.40;;;17.50;68.20;;;;;;5038620;28;20061;-73
2021/10/08 05:08:18;;;;;;;10.48;2.30;;;17.50;68.10;;;;;;5035937;28;20021;-74
2021/10/08 05:11:24;;;;;;;8.07;2.28;;;17.50;68.00;;;;;;5033934;28;20091;-73
2021/10/08 05:14:30;;;;;;;16.90;3.17;;;17.50;68.20;;;;;;5040901;28;20010;-72
2021/10/08 05:17:37;;;;;;;11.20;2.72;;;17.50;67.90;;;;;;5035552;28;21026;-73
2021/10/08 05:20:04;;;;;;;9.90;2.42;;;17.50;67.80;;;;;;5034602;28;20133;-73
2021/10/08 05:22:30;;;;;;;13.35;2.95;;;17.40;68.70;;;;;;5037564;28;20021;-74
2021/10/08 05:24:57;;;;;;;8.30;2.88;;;17.40;68.10;;;;;;5036365;28;20036;-74
2021/10/08 05:27:23;;;;;;;10.35;2.33;;;17.40;68.40;;;;;;5039632;28;20017;-73
2021/10/08 05:29:50;;;;;;;11.60;2.42;;;17.40;68.40;;;;;;5046373;28;20014;-73
2021/10/08 05:32:16;;;;;;;9.98;2.03;;;17.40;68.20;;;;;;5045572;28;20032;-73
2021/10/08 05:34:42;;;;;;;13.98;2.53;;;17.40;67.90;;;;;;5043352;28;20053;-74
2021/10/08 05:37:09;;;;;;;15.50;2.30;;;17.40;67.70;;;;;;5036987;28;20028;-74
2021/10/08 05:39:35;;;;;;;11.27;2.58;;;17.50;67.60;;;;;;5037652;28;20033;-75
2021/10/08 05:42:02;;;;;;;7.80;2.53;;;17.50;67.40;;;;;;5046685;28;20021;-74
2021/10/08 05:44:29;;;;;;;12.73;3.05;;;17.50;67.60;;;;;;5038768;28;20044;-75
2021/10/08 05:46:55;;;;;;;9.32;2.63;;;17.50;67.20;;;;;;5045162;28;20025;-74
2021/10/08 05:49:22;;;;;;;7.35;2.80;;;17.60;67.20;;;;;;5039402;28;20016;-74
2021/10/08 05:51:48;;;;;;;11.32;2.45;;;17.60;66.90;;;;;;5043654;28;20017;-75
2021/10/08 05:54:15;;;;;;;16.92;2.53;;;17.70;66.80;;;;;;5042938;28;20047;-75
2021/10/08 05:56:41;;;;;;;12.98;2.70;;;17.70;66.50;;;;;;5042118;28;20438;-74
2021/10/08 05:59:08;;;;;;;13.32;3.03;;;17.80;66.40;;;;;;5046553;28;20036;-74
2021/10/08 06:01:34;;;;;;;8.52;2.45;;;17.80;66.10;;;;;;5040090;28;20025;-74
2021/10/08 06:04:05;;;;;;;11.93;2.45;;;17.90;66.10;;;;;;5042257;28;20053;-75
2021/10/08 06:06:32;;;;;;;7.32;2.17;;;17.90;65.90;;;;;;5043873;28;20025;-74
2021/10/08 06:08:59;;;;;;;6.57;1.98;;;17.90;65.70;;;;;;5043781;28;20017;-75
2021/10/08 06:11:26;;;;;;;11.23;2.60;;;17.90;65.70;;;;;;5040714;28;20024;-75
2021/10/08 06:13:52;;;;;;;17.25;2.95;;;17.90;65.80;;;;;;5040923;28;20129;-74
2021/10/08 06:16:19;;;;;;;17.13;2.20;;;18.00;65.40;;;;;;5046674;28;20570;-74
2021/10/08 06:18:45;;;;;;;17.17;4.07;;;18.00;65.20;;;;;;5042297;28;20469;-74
2021/10/08 06:21:12;;;;;;;12.85;2.83;;;18.00;65.20;;;;;;5042104;28;20222;-74
2021/10/08 06:23:38;;;;;;;10.20;2.70;;;18.00;64.90;;;;;;5042379;28;20040;-75
2021/10/08 06:26:05;;;;;;;11.38;3.03;;;18.00;64.40;;;;;;5040758;28;20013;-75
2021/10/08 06:28:32;;;;;;;15.05;2.63;;;18.00;64.00;;;;;;5046895;28;20029;-74
2021/10/08 06:30:59;;;;;;;18.98;2.60;;;18.00;64.00;;;;;;5042788;28;20026;-74
2021/10/08 06:33:25;;;;;;;11.88;3.15;;;18.00;63.90;;;;;;5043963;28;20030;-74
2021/10/08 06:35:52;;;;;;;11.93;1.90;;;18.00;63.90;;;;;;5044075;28;20027;-75
2021/10/08 06:38:19;;;;;;;12.32;2.40;;;18.10;63.80;;;;;;5037430;28;20022;-75
2021/10/08 06:40:45;;;;;;;15.18;3.15;;;18.10;64.20;;;;;;5045906;28;20037;-74
2021/10/08 06:43:12;;;;;;;12.38;3.40;;;18.10;63.90;;;;;;5042843;28;20027;-74
2021/10/08 06:45:39;;;;;;;9.65;1.77;;;18.10;64.10;;;;;;5044726;28;20061;-75
2021/10/08 06:48:05;;;;;;;9.52;2.22;;;18.10;63.90;;;;;;5039470;28;20020;-75
2021/10/08 06:50:32;;;;;;;9.07;2.17;;;18.20;63.70;;;;;;5043398;28;20017;-74
2021/10/08 06:52:59;;;;;;;8.65;2.25;;;18.20;63.70;;;;;;5043440;28;20072;-74
2021/10/08 06:55:25;;;;;;;10.98;2.70;;;18.20;63.90;;;;;;5043869;28;20025;-73
2021/10/08 06:57:52;;;;;;;13.63;2.67;;;18.30;63.90;;;;;;5036551;28;20025;-75
2021/10/08 07:00:18;;;;;;;13.80;2.58;;;18.30;63.50;;;;;;5040734;28;20107;-74
2021/10/08 07:02:52;;;;;;;13.15;2.50;;;18.30;63.50;;;;;;5043891;28;20044;-73
2021/10/08 07:05:22;;;;;;;9.98;3.00;;;18.40;63.60;;;;;;5040613;28;20075;-74
2021/10/08 07:07:50;;;;;;;12.73;3.35;;;18.40;63.00;;;;;;5039080;28;20024;-74
2021/10/08 07:10:17;;;;;;;9.77;2.22;;;18.40;63.10;;;;;;5041841;28;20020;-75
2021/10/08 07:12:43;;;;;;;7.55;2.17;;;18.50;63.50;;;;;;5039799;28;20033;-75
2021/10/08 07:15:20;;;;;;;6.82;2.15;;;18.50;62.80;;;;;;5036426;28;20100;-75
2021/10/08 07:17:49;;;;;;;12.70;2.40;;;18.60;62.70;;;;;;5040428;28;20020;-73
2021/10/08 07:20:18;;;;;;;6.53;2.28;;;18.60;62.70;;;;;;5041077;28;20361;-74
2021/10/08 07:22:46;;;;;;;9.02;2.55;;;18.60;62.90;;;;;;5041961;28;20021;-74
2021/10/08 07:25:12;;;;;;;12.40;2.38;;;18.70;62.80;;;;;;5044225;28;20437;-74
2021/10/08 07:27:42;;;;;;;9.38;2.80;;;18.70;62.00;;;;;;5038912;28;20067;-75
2021/10/08 07:30:09;;;;;;;10.18;2.92;;;18.70;61.80;;;;;;5046512;28;20041;-74
2021/10/08 07:32:37;;;;;;;8.57;1.65;;;18.70;61.90;;;;;;5044337;28;20104;-75
2021/10/08 07:35:04;;;;;;;8.27;1.65;;;18.70;62.10;;;;;;5047745;28;20141;-75
2021/10/08 07:37:31;;;;;;;9.93;2.20;;;18.80;62.20;;;;;;5041525;28;20029;-73
2021/10/08 07:39:57;;;;;;;9.30;2.35;;;18.80;62.20;;;;;;5039561;28;20676;-73
2021/10/08 07:42:25;;;;;;;10.88;1.90;;;18.90;62.20;;;;;;5046944;28;20018;-74
2021/10/08 07:44:52;;;;;;;13.30;2.10;;;19.00;61.70;;;;;;5038714;28;20114;-74
2021/10/08 07:47:19;;;;;;;10.55;2.55;;;19.00;61.60;;;;;;5039164;28;20025;-73
2021/10/08 07:49:45;;;;;;;7.38;1.98;;;19.10;61.40;;;;;;5041478;28;20022;-75
2021/10/08 07:52:12;;;;;;;10.98;2.17;;;19.30;61.50;;;;;;5040772;28;20022;-75
2021/10/08 07:54:39;;;;;;;11.68;1.88;;;19.40;61.00;;;;;;5037930;28;20029;-73
2021/10/08 07:57:06;;;;;;;9.77;1.90;;;19.40;60.90;;;;;;5047816;28;20018;-75
2021/10/08 07:59:32;;;;;;;18.75;3.47;;;19.50;61.10;;;;;;5041983;28;20372;-75
2021/10/08 08:01:59;;;;;;;23.85;4.78;;;19.60;60.20;;;;;;5045837;28;20028;-75
2021/10/08 08:04:26;;;;;;;5.03;2.15;;;19.60;60.10;;;;;;5046234;28;20043;-75
2021/10/08 08:06:52;;;;;;;8.45;2.10;;;19.70;59.90;;;;;;5043615;28;20022;-75
2021/10/08 08:09:18;;;;;;;9.82;1.88;;;19.80;59.60;;;;;;5045423;28;20040;-75
2021/10/08 08:11:45;;;;;;;9.68;2.00;;;19.90;59.90;;;;;;5044166;28;20107;-76
2021/10/08 08:14:12;;;;;;;7.03;2.10;;;19.90;59.00;;;;;;5040559;28;20032;-74
2021/10/08 08:16:38;;;;;;;7.75;2.70;;;20.00;59.10;;;;;;5051814;28;20021;-76
2021/10/08 08:19:05;;;;;;;9.18;3.15;;;20.00;59.00;;;;;;5041855;28;20071;-75
2021/10/08 08:21:32;;;;;;;12.75;2.60;;;20.00;58.80;;;;;;5046770;28;20017;-75
2021/10/08 08:23:58;;;;;;;12.80;2.72;;;20.00;58.60;;;;;;5037917;28;20100;-75
2021/10/08 08:26:25;;;;;;;7.43;1.75;;;20.10;58.80;;;;;;5045813;28;20423;-75
2021/10/08 08:28:51;;;;;;;10.80;3.13;;;20.20;59.20;;;;;;5047899;28;20029;-76
2021/10/08 08:31:18;;;;;;;9.35;2.35;;;20.20;59.30;;;;;;5042465;28;20543;-75
2021/10/08 08:33:44;;;;;;;9.50;2.40;;;20.30;58.90;;;;;;5044088;28;20491;-75
2021/10/08 08:36:11;;;;;;;9.20;1.95;;;20.40;59.00;;;;;;5047281;28;20018;-75
2021/10/08 08:38:37;;;;;;;6.53;2.50;;;20.50;58.30;;;;;;5042860;28;20033;-75
2021/10/08 08:41:04;;;;;;;10.35;2.10;;;20.50;58.10;;;;;;5043096;28;20018;-75
2021/10/08 08:43:30;;;;;;;9.45;2.33;;;20.60;58.10;;;;;;5037091;28;20017;-76
2021/10/08 08:45:57;;;;;;;8.48;2.00;;;20.60;57.10;;;;;;5043747;28;20049;-76
2021/10/08 08:48:24;;;;;;;6.68;2.15;;;20.60;57.10;;;;;;5051377;28;20657;-75
2021/10/08 08:50:51;;;;;;;7.40;1.45;;;20.60;57.00;;;;;;5044894;28;20072;-75
2021/10/08 08:53:21;;;;;;;8.07;2.15;;;20.60;56.60;;;;;;5037254;28;20021;-74
2021/10/08 08:55:51;;;;;;;15.77;2.20;;;20.60;56.50;;;;;;5048408;28;20036;-75
2021/10/08 08:58:21;;;;;;;7.25;2.10;;;20.60;56.30;;;;;;5048834;28;20024;-75
2021/10/08 09:00:58;;;;;;;11.73;1.95;;;20.60;56.60;;;;;;5047706;28;20488;-75
2021/10/08 09:03:25;;;;;;;13.00;2.58;;;20.60;56.70;;;;;;5042391;28;20175;-75
2021/10/08 09:05:52;;;;;;;7.55;1.98;;;20.60;57.00;;;;;;5037518;28;20071;-75
2021/10/08 09:08:19;;;;;;;6.72;1.92;;;20.70;57.00;;;;;;5052101;28;20033;-75
2021/10/08 09:10:48;;;;;;;7.15;1.83;;;20.70;56.70;;;;;;5042172;28;20036;-75
2021/10/08 09:13:18;;;;;;;7.22;1.98;;;20.60;56.60;;;;;;5045853;28;20636;-75
2021/10/08 09:15:53;;;;;;;8.55;1.85;;;20.60;57.00;;;;;;5046247;28;20029;-75
2021/10/08 09:18:22;;;;;;;8.65;2.55;;;20.50;57.20;;;;;;5045883;28;20032;-75
2021/10/08 09:21:12;;;;;;;9.20;2.33;;;20.50;56.90;;;;;;5041684;28;20036;-74
2021/10/08 09:23:49;;;;;;;10.00;2.58;;;20.50;57.00;;;;;;5037242;28;20482;-75
2021/10/08 09:26:25;;;;;;;10.77;2.90;;;20.60;57.20;;;;;;5046790;28;20060;-76
2021/10/08 09:29:05;;;;;;;12.63;2.00;;;20.60;57.10;;;;;;5043247;28;20053;-76
2021/10/08 09:31:41;;;;;;;9.93;2.63;;;20.70;56.60;;;;;;5043928;28;20010;-75
2021/10/08 09:34:24;;;;;;;4.05;2.20;;;20.70;57.00;;;;;;5043479;28;20025;-75
2021/10/08 09:36:57;;;;;;;10.77;2.13;;;20.80;56.60;;;;;;5041032;28;20113;-75
2021/10/08 09:39:31;;;;;;;14.45;2.50;;;20.80;56.50;;;;;;5045476;28;20028;-75
2021/10/08 09:42:05;;;;;;;13.83;2.87;;;20.80;56.70;;;;;;5044469;28;20025;-76
2021/10/08 09:44:36;;;;;;;12.60;1.75;;;20.70;56.40;;;;;;5038359;28;20380;-74
2021/10/08 09:47:17;;;;;;;12.27;4.45;;;20.70;56.50;;;;;;5041614;28;20407;-76
2021/10/08 09:49:45;;;;;;;9.48;2.00;;;20.70;56.70;;;;;;5039995;28;20024;-75
2021/10/08 09:52:31;;;;;;;9.98;2.08;;;20.70;56.50;;;;;;5044749;28;20028;-76
2021/10/08 09:55:06;;;;;;;6.95;1.58;;;20.70;56.60;;;;;;5041497;28;20612;-76
2021/10/08 09:57:48;;;;;;;3.88;2.00;;;20.70;56.40;;;;;;5042273;28;20025;-76
2021/10/08 10:00:42;;;;;;;8.38;2.17;;;20.70;56.30;;;;;;5043934;28;20388;-76
2021/10/08 10:03:14;;;;;;;16.50;3.03;;;20.70;56.40;;;;;;5046809;28;20049;-75
2021/10/08 10:05:45;;;;;;;10.25;2.17;;;20.80;56.70;;;;;;5042334;28;20049;-76
2021/10/08 10:08:12;;;;;;;7.10;2.58;;;20.80;56.50;;;;;;5046044;28;20053;-76
2021/10/08 10:10:39;;;;;;;7.93;2.75;;;20.90;56.40;;;;;;5042110;28;20028;-75
2021/10/08 10:13:10;;;;;;;11.70;2.47;;;20.90;56.40;;;;;;5037510;28;20566;-75
2021/10/08 10:15:41;;;;;;;9.18;1.85;;;20.90;56.40;;;;;;5035580;28;20025;-74
2021/10/08 10:18:16;;;;;;;14.27;2.13;;;21.00;56.40;;;;;;5043512;28;20613;-87
2021/10/08 10:20:51;;;;;;;9.32;2.92;;;21.00;56.10;;;;;;5041845;28;20021;-72
2021/10/08 10:23:21;;;;;;;;;;;21.10;56.10;;;;;;5038414;28;20064;-73
2021/10/08 10:25:49;;;;;;;11.32;2.85;;;21.10;56.10;;;;;;5040524;28;19924;-75
2021/10/08 10:28:17;;;;;;;9.07;2.80;;;21.10;56.20;;;;;;5040548;28;20027;-76
2021/10/08 10:30:47;;;;;;;11.05;2.20;;;21.10;57.30;;;;;;5039047;28;20068;-77
2021/10/08 10:33:14;;;;;;;14.10;3.80;;;21.10;57.70;;;;;;5042272;28;20027;-75
2021/10/08 10:35:49;;;;;;;11.73;2.70;;;21.10;57.20;;;;;;5036994;28;20417;-75
2021/10/08 10:38:28;;;;;;;12.15;2.17;;;21.20;57.10;;;;;;5044472;28;20480;-75
2021/10/08 10:41:19;;;;;;;7.60;2.03;;;21.40;57.10;;;;;;5036507;28;20033;-75
2021/10/08 10:43:50;;;;;;;12.40;3.08;;;21.60;57.00;;;;;;5044345;28;20040;-75
2021/10/08 10:51:56;;;;;;;7.65;2.47;;;21.60;56.50;;;;;;5043329;28;20029;-74
2021/10/08 10:54:49;;;;;;;7.85;2.33;;;21.50;56.40;;;;;;5048278;28;20025;-74
2021/10/08 10:57:19;;;;;;;6.60;2.08;;;21.40;57.30;;;;;;5041002;28;20031;-76
2021/10/08 10:59:47;;;;;;;11.88;2.45;;;21.30;57.10;;;;;;5039298;28;20119;-79
2021/10/08 11:02:18;;;;;;;10.82;3.33;;;21.20;57.80;;;;;;5043987;28;20104;-75
2021/10/08 11:04:46;;;;;;;6.25;2.22;;;21.10;58.00;;;;;;5037433;28;20029;-74
2021/10/08 11:07:16;;;;;;;10.38;3.13;;;20.90;58.00;;;;;;5045147;28;20360;-75
2021/10/08 11:09:44;;;;;;;9.13;2.85;;;20.80;58.70;;;;;;5041781;28;20032;-75
2021/10/08 11:12:50;;;;;;;7.10;1.92;;;20.70;59.30;;;;;;5045713;28;20013;-74
2021/10/08 11:15:17;;;;;;;10.07;2.70;;;20.70;59.30;;;;;;5039306;28;20020;-75
2021/10/08 11:17:55;;;;;;;6.40;2.40;;;20.70;58.80;;;;;;5041329;28;20068;-74
2021/10/08 11:20:38;;;;;;;7.88;2.50;;;20.70;59.10;;;;;;5038553;28;20029;-74
2021/10/08 11:23:07;;;;;;;7.63;2.15;;;20.70;59.30;;;;;;5049141;28;20104;-74
2021/10/08 11:25:45;;;;;;;11.90;3.10;;;20.60;59.30;;;;;;5047802;28;20040;-74
2021/10/08 11:28:14;;;;;;;14.32;2.75;;;20.60;59.40;;;;;;5045761;28;20009;-75
2021/10/08 11:30:40;;;;;;;11.52;2.70;;;20.50;59.50;;;;;;5047973;28;20024;-75
2021/10/08 11:33:07;;;;;;;6.10;3.05;;;20.50;59.40;;;;;;5046965;28;20025;-77
2021/10/08 11:35:36;;;;;;;9.82;2.80;;;20.50;59.60;;;;;;5052402;28;20052;-74
2021/10/08 11:38:24;;;;;;;16.60;2.88;;;20.60;59.70;;;;;;5042581;28;20781;-76
2021/10/08 11:40:50;;;;;;;11.70;3.15;;;20.70;59.80;;;;;;5042685;28;20192;-74
2021/10/08 11:43:29;;;;;;;9.30;2.20;;;20.70;59.40;;;;;;5039704;28;20021;-75
2021/10/08 11:48:28;;;;;;;9.25;2.58;;;20.70;59.00;;;;;;5047024;28;20013;-74
2021/10/08 11:51:03;;;;;;;14.60;3.80;;;20.80;59.00;;;;;;5045070;28;20036;-76
2021/10/08 11:53:57;;;;;;;9.82;2.58;;;20.80;58.60;;;;;;5038792;28;20021;-75
2021/10/08 11:56:32;;;;;;;10.07;2.42;;;20.90;58.30;;;;;;5042643;28;20017;-74
2021/10/08 11:58:59;;;;;;;18.70;3.13;;;21.00;58.50;;;;;;5043622;28;20064;-77
2021/10/08 12:01:27;;;;;;;7.40;2.10;;;21.00;58.20;;;;;;5040022;28;20022;-75
2021/10/08 12:03:54;;;;;;;10.57;3.30;;;21.10;57.70;;;;;;5039302;28;20040;-76
2021/10/08 12:06:25;;;;;;;8.43;2.03;;;21.10;57.90;;;;;;5055111;28;20063;-75
2021/10/08 12:08:53;;;;;;;12.63;2.80;;;21.10;58.20;;;;;;5044714;28;20376;-75
2021/10/08 12:11:21;;;;;;;10.00;2.60;;;21.20;58.00;;;;;;5049343;28;20523;-76
2021/10/08 12:13:52;;;;;;;8.00;3.05;;;21.10;58.30;;;;;;5042127;28;20022;-75
2021/10/08 12:16:24;;;;;;;8.48;2.38;;;21.00;59.50;;;;;;5042917;28;20036;-75
2021/10/08 12:18:56;;;;;;;10.73;5.63;;;20.90;59.60;;;;;;5046320;28;20018;-76
2021/10/08 12:21:37;;;;;;;11.07;6.00;;;20.80;59.80;;;;;;5046792;28;20392;-77
2021/10/08 12:24:08;;;;;;;13.40;3.28;;;20.70;59.80;;;;;;5047069;28;20022;-76
2021/10/08 12:26:38;;;;;;;8.35;2.25;;;20.60;59.80;;;;;;5046703;28;20029;-75
2021/10/08 12:29:14;;;;;;;14.25;2.50;;;20.50;59.90;;;;;;5044167;28;20056;-75
2021/10/08 12:31:56;;;;;;;16.10;4.18;;;20.40;60.00;;;;;;5043426;28;20063;-75
2021/10/08 12:34:46;;;;;;;9.00;2.50;;;20.30;60.80;;;;;;5041296;28;20074;-75
2021/10/08 12:37:30;;;;;;;10.63;2.58;;;20.20;61.40;;;;;;5040904;28;20408;-74
2021/10/08 12:40:13;;;;;;;7.03;2.95;;;20.20;61.80;;;;;;5047920;28;20501;-76
2021/10/08 12:42:52;;;;;;;9.32;4.03;;;20.10;61.90;;;;;;5041446;28;20028;-75
2021/10/08 12:45:36;;;;;;;10.65;3.22;;;20.10;62.10;;;;;;5036682;28;20043;-75
2021/10/08 12:48:05;;;;;;;13.75;2.85;;;20.00;61.90;;;;;;5049991;28;20033;-76
2021/10/08 12:50:36;;;;;;;12.30;3.15;;;19.90;62.00;;;;;;5041676;28;20028;-76
2021/10/08 12:53:14;;;;;;;23.27;6.22;;;19.90;62.40;;;;;;5039623;28;20017;-73
2021/10/08 12:55:41;;;;;;;15.57;3.58;;;19.80;62.60;;;;;;5041270;28;20017;-75
2021/10/08 12:58:31;;;;;;;13.18;2.67;;;19.80;62.90;;;;;;5049529;28;20032;-75
2021/10/08 13:01:00;;;;;;;16.50;5.07;;;19.80;63.10;;;;;;5045331;28;20044;-76
2021/10/08 13:03:33;;;;;;;15.27;3.45;;;19.70;63.60;;;;;;5044221;28;20045;-75
2021/10/08 13:06:01;;;;;;;9.27;2.33;;;19.60;64.10;;;;;;5041543;28;20361;-74
2021/10/08 13:08:31;;;;;;;12.65;3.00;;;19.60;64.90;;;;;;5036699;28;20029;-75